sensor_id;sensor_type;location;lat;lon;timestamp;temperature;humidity
72338;DHT22;60294;64.134;-21.862;2022-11-06T00:01:15;4.00;67.40
72338;DHT22;60294;64.134;-21.862;2022-11-06T00:03:42;4.10;67.40
72338;DHT22;60294;64.134;-21.862;2022-11-06T00:06:11;4.10;67.30
72338;DHT22;60294;64.134;-21.862;2022-11-06T00:08:58;4.10;67.10
72338;DHT22;60294;64.134;-21.862;2022-11-06T00:11:25;4.10;67.10
72338;DHT22;60294;64.134;-21.862;2022-11-06T00:13:51;4.10;67.00
72338;DHT22;60294;64.134;-21.862;2022-11-06T00:16:19;4.10;67.10
72338;DHT22;60294;64.134;-21.862;2022-11-06T00:18:48;4.00;67.20
72338;DHT22;60294;64.134;-21.862;2022-11-06T00:21:21;4.00;67.30
72338;DHT22;60294;64.134;-21.862;2022-11-06T00:23:55;4.00;67.40
72338;DHT22;60294;64.134;-21.862;2022-11-06T00:26:26;3.90;67.50
72338;DHT22;60294;64.134;-21.862;2022-11-06T00:28:53;3.90;67.50
72338;DHT22;60294;64.134;-21.862;2022-11-06T00:31:35;3.90;67.60
72338;DHT22;60294;64.134;-21.862;2022-11-06T00:34:03;3.80;67.80
72338;DHT22;60294;64.134;-21.862;2022-11-06T00:36:30;3.80;67.80
72338;DHT22;60294;64.134;-21.862;2022-11-06T00:38:56;3.80;68.00
72338;DHT22;60294;64.134;-21.862;2022-11-06T00:41:23;3.80;68.10
72338;DHT22;60294;64.134;-21.862;2022-11-06T00:43:52;3.80;67.90
72338;DHT22;60294;64.134;-21.862;2022-11-06T00:46:18;3.90;67.60
72338;DHT22;60294;64.134;-21.862;2022-11-06T00:48:45;3.80;67.50
72338;DHT22;60294;64.134;-21.862;2022-11-06T00:51:15;3.80;67.50
72338;DHT22;60294;64.134;-21.862;2022-11-06T00:53:43;3.90;67.60
72338;DHT22;60294;64.134;-21.862;2022-11-06T00:56:18;3.80;67.60
72338;DHT22;60294;64.134;-21.862;2022-11-06T00:58:46;3.80;67.60
72338;DHT22;60294;64.134;-21.862;2022-11-06T01:01:17;3.80;67.60
72338;DHT22;60294;64.134;-21.862;2022-11-06T01:03:50;3.80;67.80
72338;DHT22;60294;64.134;-21.862;2022-11-06T01:06:20;3.70;67.80
72338;DHT22;60294;64.134;-21.862;2022-11-06T01:08:47;3.80;67.90
72338;DHT22;60294;64.134;-21.862;2022-11-06T01:11:19;3.70;68.10
72338;DHT22;60294;64.134;-21.862;2022-11-06T01:13:49;3.70;68.10
72338;DHT22;60294;64.134;-21.862;2022-11-06T01:16:15;3.70;68.20
72338;DHT22;60294;64.134;-21.862;2022-11-06T01:18:42;3.60;68.30
72338;DHT22;60294;64.134;-21.862;2022-11-06T01:21:18;3.60;68.30
72338;DHT22;60294;64.134;-21.862;2022-11-06T01:23:45;3.60;68.40
72338;DHT22;60294;64.134;-21.862;2022-11-06T01:26:12;3.60;68.40
72338;DHT22;60294;64.134;-21.862;2022-11-06T01:28:40;3.60;68.60
72338;DHT22;60294;64.134;-21.862;2022-11-06T01:31:11;3.50;68.50
72338;DHT22;60294;64.134;-21.862;2022-11-06T01:33:38;3.50;68.30
72338;DHT22;60294;64.134;-21.862;2022-11-06T01:36:11;3.60;68.90
72338;DHT22;60294;64.134;-21.862;2022-11-06T01:38:41;3.50;68.20
72338;DHT22;60294;64.134;-21.862;2022-11-06T01:41:13;3.50;67.80
72338;DHT22;60294;64.134;-21.862;2022-11-06T01:46:18;3.70;66.30
72338;DHT22;60294;64.134;-21.862;2022-11-06T01:48:53;3.70;65.70
72338;DHT22;60294;64.134;-21.862;2022-11-06T01:51:21;3.70;65.60
72338;DHT22;60294;64.134;-21.862;2022-11-06T01:53:49;3.80;65.50
72338;DHT22;60294;64.134;-21.862;2022-11-06T01:56:17;3.90;64.60
72338;DHT22;60294;64.134;-21.862;2022-11-06T01:58:45;3.90;64.20
72338;DHT22;60294;64.134;-21.862;2022-11-06T02:01:12;4.00;64.20
72338;DHT22;60294;64.134;-21.862;2022-11-06T02:03:47;4.10;63.60
72338;DHT22;60294;64.134;-21.862;2022-11-06T02:06:18;4.10;63.40
72338;DHT22;60294;64.134;-21.862;2022-11-06T02:08:44;4.20;63.20
72338;DHT22;60294;64.134;-21.862;2022-11-06T02:11:10;4.20;63.30
72338;DHT22;60294;64.134;-21.862;2022-11-06T02:16:41;4.40;62.30
72338;DHT22;60294;64.134;-21.862;2022-11-06T02:19:51;4.40;62.00
72338;DHT22;60294;64.134;-21.862;2022-11-06T02:22:36;4.50;61.30
72338;DHT22;60294;64.134;-21.862;2022-11-06T02:27:59;4.50;61.40
72338;DHT22;60294;64.134;-21.862;2022-11-06T02:30:49;4.50;61.30
72338;DHT22;60294;64.134;-21.862;2022-11-06T02:33:21;4.50;61.70
72338;DHT22;60294;64.134;-21.862;2022-11-06T02:35:57;4.50;61.70
72338;DHT22;60294;64.134;-21.862;2022-11-06T02:38:35;4.50;61.60
72338;DHT22;60294;64.134;-21.862;2022-11-06T02:41:05;4.50;61.60
72338;DHT22;60294;64.134;-21.862;2022-11-06T02:43:38;4.50;61.70
72338;DHT22;60294;64.134;-21.862;2022-11-06T02:46:10;4.50;61.40
72338;DHT22;60294;64.134;-21.862;2022-11-06T02:48:42;4.50;61.30
72338;DHT22;60294;64.134;-21.862;2022-11-06T02:51:11;4.60;60.70
72338;DHT22;60294;64.134;-21.862;2022-11-06T02:53:42;4.60;59.40
72338;DHT22;60294;64.134;-21.862;2022-11-06T02:56:12;4.60;59.70
72338;DHT22;60294;64.134;-21.862;2022-11-06T02:59:08;4.70;58.80
72338;DHT22;60294;64.134;-21.862;2022-11-06T03:01:54;4.70;59.20
72338;DHT22;60294;64.134;-21.862;2022-11-06T03:07:03;4.80;59.10
72338;DHT22;60294;64.134;-21.862;2022-11-06T03:09:32;4.80;59.10
72338;DHT22;60294;64.134;-21.862;2022-11-06T03:12:23;4.70;59.40
72338;DHT22;60294;64.134;-21.862;2022-11-06T03:14:58;4.60;59.70
72338;DHT22;60294;64.134;-21.862;2022-11-06T03:23:15;4.60;59.80
72338;DHT22;60294;64.134;-21.862;2022-11-06T03:25:51;4.60;59.80
72338;DHT22;60294;64.134;-21.862;2022-11-06T03:28:37;4.60;59.70
72338;DHT22;60294;64.134;-21.862;2022-11-06T03:31:08;4.60;59.90
72338;DHT22;60294;64.134;-21.862;2022-11-06T03:33:57;4.60;59.80
72338;DHT22;60294;64.134;-21.862;2022-11-06T03:36:25;4.70;59.70
72338;DHT22;60294;64.134;-21.862;2022-11-06T03:38:59;4.70;59.90
72338;DHT22;60294;64.134;-21.862;2022-11-06T03:41:28;4.70;59.80
72338;DHT22;60294;64.134;-21.862;2022-11-06T03:43:57;4.70;59.80
72338;DHT22;60294;64.134;-21.862;2022-11-06T03:46:25;4.70;60.00
72338;DHT22;60294;64.134;-21.862;2022-11-06T03:49:00;4.70;60.00
72338;DHT22;60294;64.134;-21.862;2022-11-06T03:51:33;4.70;60.20
72338;DHT22;60294;64.134;-21.862;2022-11-06T03:54:10;4.70;60.30
72338;DHT22;60294;64.134;-21.862;2022-11-06T03:59:50;4.70;61.20
72338;DHT22;60294;64.134;-21.862;2022-11-06T04:02:18;4.60;61.50
72338;DHT22;60294;64.134;-21.862;2022-11-06T04:04:55;4.60;61.60
72338;DHT22;60294;64.134;-21.862;2022-11-06T04:07:32;4.50;61.70
72338;DHT22;60294;64.134;-21.862;2022-11-06T04:10:02;4.40;61.80
72338;DHT22;60294;64.134;-21.862;2022-11-06T04:12:49;4.40;61.80
72338;DHT22;60294;64.134;-21.862;2022-11-06T04:15:40;4.30;62.20
72338;DHT22;60294;64.134;-21.862;2022-11-06T04:18:19;4.30;62.30
72338;DHT22;60294;64.134;-21.862;2022-11-06T04:27:00;4.20;63.10
72338;DHT22;60294;64.134;-21.862;2022-11-06T04:32:20;4.10;63.30
72338;DHT22;60294;64.134;-21.862;2022-11-06T04:43:02;4.20;62.70
72338;DHT22;60294;64.134;-21.862;2022-11-06T04:45:41;4.30;62.30
72338;DHT22;60294;64.134;-21.862;2022-11-06T04:48:08;4.30;62.10
72338;DHT22;60294;64.134;-21.862;2022-11-06T04:50:41;4.30;61.80
72338;DHT22;60294;64.134;-21.862;2022-11-06T04:53:10;4.30;61.90
72338;DHT22;60294;64.134;-21.862;2022-11-06T04:55:52;4.40;61.60
72338;DHT22;60294;64.134;-21.862;2022-11-06T04:58:20;4.40;61.40
72338;DHT22;60294;64.134;-21.862;2022-11-06T05:00:47;4.40;61.20
72338;DHT22;60294;64.134;-21.862;2022-11-06T05:03:15;4.50;60.10
72338;DHT22;60294;64.134;-21.862;2022-11-06T05:05:42;4.60;59.90
72338;DHT22;60294;64.134;-21.862;2022-11-06T05:08:18;4.60;59.50
72338;DHT22;60294;64.134;-21.862;2022-11-06T05:10:44;4.80;58.40
72338;DHT22;60294;64.134;-21.862;2022-11-06T05:13:11;4.80;57.90
72338;DHT22;60294;64.134;-21.862;2022-11-06T05:15:37;4.80;57.80
72338;DHT22;60294;64.134;-21.862;2022-11-06T05:18:05;5.00;57.30
72338;DHT22;60294;64.134;-21.862;2022-11-06T05:20:32;5.00;57.10
72338;DHT22;60294;64.134;-21.862;2022-11-06T05:22:59;5.00;57.10
72338;DHT22;60294;64.134;-21.862;2022-11-06T05:25:31;5.00;57.60
72338;DHT22;60294;64.134;-21.862;2022-11-06T05:27:58;5.00;57.80
72338;DHT22;60294;64.134;-21.862;2022-11-06T05:30:25;5.00;58.00
72338;DHT22;60294;64.134;-21.862;2022-11-06T05:32:51;5.00;58.20
72338;DHT22;60294;64.134;-21.862;2022-11-06T05:35:18;5.00;58.40
72338;DHT22;60294;64.134;-21.862;2022-11-06T05:37:45;4.90;58.60
72338;DHT22;60294;64.134;-21.862;2022-11-06T05:40:12;4.90;58.90
72338;DHT22;60294;64.134;-21.862;2022-11-06T05:42:42;4.90;59.00
72338;DHT22;60294;64.134;-21.862;2022-11-06T05:45:09;4.90;59.20
72338;DHT22;60294;64.134;-21.862;2022-11-06T05:47:39;4.90;59.30
72338;DHT22;60294;64.134;-21.862;2022-11-06T05:50:07;5.00;59.50
72338;DHT22;60294;64.134;-21.862;2022-11-06T05:52:34;4.90;59.70
72338;DHT22;60294;64.134;-21.862;2022-11-06T05:55:00;4.90;59.90
72338;DHT22;60294;64.134;-21.862;2022-11-06T05:57:25;5.00;59.90
72338;DHT22;60294;64.134;-21.862;2022-11-06T05:59:51;5.00;60.10
72338;DHT22;60294;64.134;-21.862;2022-11-06T06:02:17;5.00;60.50
72338;DHT22;60294;64.134;-21.862;2022-11-06T06:04:45;4.90;60.50
72338;DHT22;60294;64.134;-21.862;2022-11-06T06:07:11;4.90;60.80
72338;DHT22;60294;64.134;-21.862;2022-11-06T06:09:37;4.90;61.10
72338;DHT22;60294;64.134;-21.862;2022-11-06T06:12:03;4.80;61.40
72338;DHT22;60294;64.134;-21.862;2022-11-06T06:14:29;4.90;61.30
72338;DHT22;60294;64.134;-21.862;2022-11-06T06:16:57;4.90;60.80
72338;DHT22;60294;64.134;-21.862;2022-11-06T06:19:23;5.00;60.80
72338;DHT22;60294;64.134;-21.862;2022-11-06T06:21:49;5.00;60.50
72338;DHT22;60294;64.134;-21.862;2022-11-06T06:24:15;5.00;60.40
72338;DHT22;60294;64.134;-21.862;2022-11-06T06:26:41;5.10;60.40
72338;DHT22;60294;64.134;-21.862;2022-11-06T06:29:07;5.10;60.30
72338;DHT22;60294;64.134;-21.862;2022-11-06T06:31:33;5.10;60.40
72338;DHT22;60294;64.134;-21.862;2022-11-06T06:33:59;5.10;60.20
72338;DHT22;60294;64.134;-21.862;2022-11-06T06:36:25;5.10;60.00
72338;DHT22;60294;64.134;-21.862;2022-11-06T06:38:51;5.10;59.90
72338;DHT22;60294;64.134;-21.862;2022-11-06T06:41:18;5.20;59.80
72338;DHT22;60294;64.134;-21.862;2022-11-06T06:43:47;5.30;59.70
72338;DHT22;60294;64.134;-21.862;2022-11-06T06:46:13;5.30;59.70
72338;DHT22;60294;64.134;-21.862;2022-11-06T06:48:40;5.40;59.60
72338;DHT22;60294;64.134;-21.862;2022-11-06T06:51:06;5.30;59.70
72338;DHT22;60294;64.134;-21.862;2022-11-06T06:53:35;5.40;59.60
72338;DHT22;60294;64.134;-21.862;2022-11-06T06:56:01;5.50;59.60
72338;DHT22;60294;64.134;-21.862;2022-11-06T06:58:28;5.50;59.50
72338;DHT22;60294;64.134;-21.862;2022-11-06T07:00:57;5.50;59.40
72338;DHT22;60294;64.134;-21.862;2022-11-06T07:03:23;5.50;59.00
72338;DHT22;60294;64.134;-21.862;2022-11-06T07:05:48;5.60;58.50
72338;DHT22;60294;64.134;-21.862;2022-11-06T07:08:14;5.60;58.40
72338;DHT22;60294;64.134;-21.862;2022-11-06T07:10:40;5.60;58.20
72338;DHT22;60294;64.134;-21.862;2022-11-06T07:13:06;5.70;57.90
72338;DHT22;60294;64.134;-21.862;2022-11-06T07:15:32;5.70;58.00
72338;DHT22;60294;64.134;-21.862;2022-11-06T07:18:05;5.70;57.60
72338;DHT22;60294;64.134;-21.862;2022-11-06T07:20:32;5.70;57.70
72338;DHT22;60294;64.134;-21.862;2022-11-06T07:22:58;5.70;57.20
72338;DHT22;60294;64.134;-21.862;2022-11-06T07:25:24;5.80;56.80
72338;DHT22;60294;64.134;-21.862;2022-11-06T07:27:50;5.90;56.80
72338;DHT22;60294;64.134;-21.862;2022-11-06T07:30:16;5.80;56.80
72338;DHT22;60294;64.134;-21.862;2022-11-06T07:32:42;5.90;56.80
72338;DHT22;60294;64.134;-21.862;2022-11-06T07:35:08;5.90;56.70
72338;DHT22;60294;64.134;-21.862;2022-11-06T07:37:35;5.90;57.00
72338;DHT22;60294;64.134;-21.862;2022-11-06T07:40:01;5.90;56.50
72338;DHT22;60294;64.134;-21.862;2022-11-06T07:42:27;5.90;56.30
72338;DHT22;60294;64.134;-21.862;2022-11-06T07:44:53;5.90;55.80
72338;DHT22;60294;64.134;-21.862;2022-11-06T07:47:23;5.90;55.50
72338;DHT22;60294;64.134;-21.862;2022-11-06T07:49:48;6.00;55.30
72338;DHT22;60294;64.134;-21.862;2022-11-06T07:52:15;6.00;55.20
72338;DHT22;60294;64.134;-21.862;2022-11-06T07:54:41;5.90;55.50
72338;DHT22;60294;64.134;-21.862;2022-11-06T07:57:07;5.90;55.70
72338;DHT22;60294;64.134;-21.862;2022-11-06T07:59:33;5.90;56.00
72338;DHT22;60294;64.134;-21.862;2022-11-06T08:01:59;5.80;56.30
72338;DHT22;60294;64.134;-21.862;2022-11-06T08:04:25;5.80;56.70
72338;DHT22;60294;64.134;-21.862;2022-11-06T08:06:50;5.70;56.80
72338;DHT22;60294;64.134;-21.862;2022-11-06T08:09:16;5.70;57.20
72338;DHT22;60294;64.134;-21.862;2022-11-06T08:11:42;5.70;57.60
72338;DHT22;60294;64.134;-21.862;2022-11-06T08:14:08;5.70;57.60
72338;DHT22;60294;64.134;-21.862;2022-11-06T08:16:35;5.70;57.90
72338;DHT22;60294;64.134;-21.862;2022-11-06T08:19:01;5.80;58.20
72338;DHT22;60294;64.134;-21.862;2022-11-06T08:21:27;5.90;58.20
72338;DHT22;60294;64.134;-21.862;2022-11-06T08:23:53;5.90;58.00
72338;DHT22;60294;64.134;-21.862;2022-11-06T08:26:19;6.00;58.10
72338;DHT22;60294;64.134;-21.862;2022-11-06T08:28:44;6.00;58.20
72338;DHT22;60294;64.134;-21.862;2022-11-06T08:31:11;6.00;58.20
72338;DHT22;60294;64.134;-21.862;2022-11-06T08:33:39;6.00;58.30
72338;DHT22;60294;64.134;-21.862;2022-11-06T08:36:06;6.00;58.30
72338;DHT22;60294;64.134;-21.862;2022-11-06T08:38:32;6.00;58.40
72338;DHT22;60294;64.134;-21.862;2022-11-06T08:41:06;6.00;58.30
72338;DHT22;60294;64.134;-21.862;2022-11-06T08:43:33;6.00;58.70
72338;DHT22;60294;64.134;-21.862;2022-11-06T08:45:59;6.00;58.50
72338;DHT22;60294;64.134;-21.862;2022-11-06T08:48:26;6.10;58.60
72338;DHT22;60294;64.134;-21.862;2022-11-06T08:50:52;6.10;58.80
72338;DHT22;60294;64.134;-21.862;2022-11-06T08:53:20;6.10;58.80
72338;DHT22;60294;64.134;-21.862;2022-11-06T08:55:47;6.10;58.90
72338;DHT22;60294;64.134;-21.862;2022-11-06T08:58:13;6.10;59.50
72338;DHT22;60294;64.134;-21.862;2022-11-06T09:00:39;6.10;59.60
72338;DHT22;60294;64.134;-21.862;2022-11-06T09:03:11;6.10;59.50
72338;DHT22;60294;64.134;-21.862;2022-11-06T09:05:43;6.10;59.60
72338;DHT22;60294;64.134;-21.862;2022-11-06T09:08:10;6.10;59.70
72338;DHT22;60294;64.134;-21.862;2022-11-06T09:10:38;6.10;59.60
72338;DHT22;60294;64.134;-21.862;2022-11-06T09:13:04;6.10;59.60
72338;DHT22;60294;64.134;-21.862;2022-11-06T09:15:30;6.10;59.80
72338;DHT22;60294;64.134;-21.862;2022-11-06T09:17:56;6.00;60.00
72338;DHT22;60294;64.134;-21.862;2022-11-06T09:20:23;6.00;60.00
72338;DHT22;60294;64.134;-21.862;2022-11-06T09:22:49;6.00;60.00
72338;DHT22;60294;64.134;-21.862;2022-11-06T09:25:16;5.90;60.40
72338;DHT22;60294;64.134;-21.862;2022-11-06T09:27:43;5.90;60.30
72338;DHT22;60294;64.134;-21.862;2022-11-06T09:30:11;5.90;60.10
72338;DHT22;60294;64.134;-21.862;2022-11-06T09:32:38;5.90;60.10
72338;DHT22;60294;64.134;-21.862;2022-11-06T09:35:09;5.90;59.80
72338;DHT22;60294;64.134;-21.862;2022-11-06T09:37:35;5.80;59.60
72338;DHT22;60294;64.134;-21.862;2022-11-06T09:40:01;5.80;59.60
72338;DHT22;60294;64.134;-21.862;2022-11-06T09:45:42;5.80;59.30
72338;DHT22;60294;64.134;-21.862;2022-11-06T09:48:31;5.80;58.80
72338;DHT22;60294;64.134;-21.862;2022-11-06T09:53:36;5.80;58.40
72338;DHT22;60294;64.134;-21.862;2022-11-06T09:56:04;5.90;58.30
72338;DHT22;60294;64.134;-21.862;2022-11-06T09:58:35;5.80;58.30
72338;DHT22;60294;64.134;-21.862;2022-11-06T10:01:26;5.80;58.70
72338;DHT22;60294;64.134;-21.862;2022-11-06T10:03:57;5.90;58.70
72338;DHT22;60294;64.134;-21.862;2022-11-06T10:06:24;5.80;58.80
72338;DHT22;60294;64.134;-21.862;2022-11-06T10:08:52;5.80;58.80
72338;DHT22;60294;64.134;-21.862;2022-11-06T10:11:34;5.80;58.90
72338;DHT22;60294;64.134;-21.862;2022-11-06T10:19:45;5.80;59.70
72338;DHT22;60294;64.134;-21.862;2022-11-06T10:22:38;5.70;59.80
72338;DHT22;60294;64.134;-21.862;2022-11-06T10:25:19;5.70;60.00
72338;DHT22;60294;64.134;-21.862;2022-11-06T10:28:00;5.70;60.00
72338;DHT22;60294;64.134;-21.862;2022-11-06T10:33:42;5.70;60.50
72338;DHT22;60294;64.134;-21.862;2022-11-06T10:36:19;5.70;60.70
72338;DHT22;60294;64.134;-21.862;2022-11-06T10:38:47;5.70;60.80
72338;DHT22;60294;64.134;-21.862;2022-11-06T10:41:23;5.70;61.10
72338;DHT22;60294;64.134;-21.862;2022-11-06T10:46:42;5.70;61.20
72338;DHT22;60294;64.134;-21.862;2022-11-06T10:49:36;5.70;61.30
72338;DHT22;60294;64.134;-21.862;2022-11-06T10:57:57;5.60;62.00
72338;DHT22;60294;64.134;-21.862;2022-11-06T11:00:24;5.60;62.10
72338;DHT22;60294;64.134;-21.862;2022-11-06T11:02:58;5.60;62.30
72338;DHT22;60294;64.134;-21.862;2022-11-06T11:05:31;5.60;62.60
72338;DHT22;60294;64.134;-21.862;2022-11-06T11:07:59;5.50;62.70
72338;DHT22;60294;64.134;-21.862;2022-11-06T11:10:35;5.50;62.70
72338;DHT22;60294;64.134;-21.862;2022-11-06T11:13:03;5.50;62.90
72338;DHT22;60294;64.134;-21.862;2022-11-06T11:15:44;5.50;63.20
72338;DHT22;60294;64.134;-21.862;2022-11-06T11:20:44;5.50;63.10
72338;DHT22;60294;64.134;-21.862;2022-11-06T11:23:24;5.50;63.10
72338;DHT22;60294;64.134;-21.862;2022-11-06T11:25:55;5.60;63.20
72338;DHT22;60294;64.134;-21.862;2022-11-06T11:28:29;5.50;63.10
72338;DHT22;60294;64.134;-21.862;2022-11-06T11:31:10;5.50;63.00
72338;DHT22;60294;64.134;-21.862;2022-11-06T11:33:37;5.50;63.00
72338;DHT22;60294;64.134;-21.862;2022-11-06T11:36:06;5.50;62.90
72338;DHT22;60294;64.134;-21.862;2022-11-06T11:38:35;5.40;62.90
72338;DHT22;60294;64.134;-21.862;2022-11-06T11:43:55;5.40;62.80
72338;DHT22;60294;64.134;-21.862;2022-11-06T11:46:22;5.40;62.40
72338;DHT22;60294;64.134;-21.862;2022-11-06T11:48:52;5.40;62.50
72338;DHT22;60294;64.134;-21.862;2022-11-06T11:51:42;5.50;62.50
72338;DHT22;60294;64.134;-21.862;2022-11-06T11:56:56;5.50;62.50
72338;DHT22;60294;64.134;-21.862;2022-11-06T11:59:29;5.50;62.30
72338;DHT22;60294;64.134;-21.862;2022-11-06T12:02:01;5.60;62.30
72338;DHT22;60294;64.134;-21.862;2022-11-06T12:04:37;5.60;62.00
72338;DHT22;60294;64.134;-21.862;2022-11-06T12:07:07;5.60;61.80
72338;DHT22;60294;64.134;-21.862;2022-11-06T12:09:42;5.70;61.20
72338;DHT22;60294;64.134;-21.862;2022-11-06T12:12:32;5.70;61.10
72338;DHT22;60294;64.134;-21.862;2022-11-06T12:20:25;6.00;60.40
72338;DHT22;60294;64.134;-21.862;2022-11-06T12:22:53;6.00;60.30
72338;DHT22;60294;64.134;-21.862;2022-11-06T12:25:33;6.00;60.30
72338;DHT22;60294;64.134;-21.862;2022-11-06T12:28:01;6.10;60.10
72338;DHT22;60294;64.134;-21.862;2022-11-06T12:30:30;6.10;60.30
72338;DHT22;60294;64.134;-21.862;2022-11-06T12:33:09;6.10;60.10
72338;DHT22;60294;64.134;-21.862;2022-11-06T12:35:58;6.10;60.00
72338;DHT22;60294;64.134;-21.862;2022-11-06T12:41:25;6.30;60.20
72338;DHT22;60294;64.134;-21.862;2022-11-06T12:43:53;6.30;59.90
72338;DHT22;60294;64.134;-21.862;2022-11-06T12:49:19;6.40;59.60
72338;DHT22;60294;64.134;-21.862;2022-11-06T12:55:09;6.40;59.10
72338;DHT22;60294;64.134;-21.862;2022-11-06T12:57:53;6.40;59.20
72338;DHT22;60294;64.134;-21.862;2022-11-06T13:00:26;6.40;59.10
72338;DHT22;60294;64.134;-21.862;2022-11-06T13:08:34;6.50;59.20
72338;DHT22;60294;64.134;-21.862;2022-11-06T13:11:05;6.50;59.30
72338;DHT22;60294;64.134;-21.862;2022-11-06T13:13:51;6.50;59.40
72338;DHT22;60294;64.134;-21.862;2022-11-06T13:16:37;6.60;59.40
72338;DHT22;60294;64.134;-21.862;2022-11-06T13:19:09;6.50;59.60
72338;DHT22;60294;64.134;-21.862;2022-11-06T13:24:39;6.60;59.40
72338;DHT22;60294;64.134;-21.862;2022-11-06T13:29:37;6.60;59.80
72338;DHT22;60294;64.134;-21.862;2022-11-06T13:32:10;6.60;59.50
72338;DHT22;60294;64.134;-21.862;2022-11-06T13:34:40;6.60;59.50
72338;DHT22;60294;64.134;-21.862;2022-11-06T13:37:21;6.60;59.80
72338;DHT22;60294;64.134;-21.862;2022-11-06T13:39:55;6.60;60.00
72338;DHT22;60294;64.134;-21.862;2022-11-06T13:42:39;6.60;60.20
72338;DHT22;60294;64.134;-21.862;2022-11-06T13:45:08;6.50;59.80
72338;DHT22;60294;64.134;-21.862;2022-11-06T13:47:50;6.40;59.10
72338;DHT22;60294;64.134;-21.862;2022-11-06T13:50:43;6.40;59.10
72338;DHT22;60294;64.134;-21.862;2022-11-06T13:53:18;6.30;59.30
72338;DHT22;60294;64.134;-21.862;2022-11-06T14:04:50;6.50;58.50
72338;DHT22;60294;64.134;-21.862;2022-11-06T14:07:19;6.50;57.70
72338;DHT22;60294;64.134;-21.862;2022-11-06T14:09:46;6.60;57.30
72338;DHT22;60294;64.134;-21.862;2022-11-06T14:12:19;6.60;56.90
72338;DHT22;60294;64.134;-21.862;2022-11-06T14:14:47;6.60;56.90
72338;DHT22;60294;64.134;-21.862;2022-11-06T14:17:23;6.60;56.90
72338;DHT22;60294;64.134;-21.862;2022-11-06T14:22:23;6.60;57.40
72338;DHT22;60294;64.134;-21.862;2022-11-06T14:24:50;6.60;57.60
72338;DHT22;60294;64.134;-21.862;2022-11-06T14:32:45;6.60;56.80
72338;DHT22;60294;64.134;-21.862;2022-11-06T14:35:48;6.60;56.80
72338;DHT22;60294;64.134;-21.862;2022-11-06T14:38:32;6.60;57.00
72338;DHT22;60294;64.134;-21.862;2022-11-06T14:40:59;6.60;56.60
72338;DHT22;60294;64.134;-21.862;2022-11-06T14:43:31;6.50;56.60
72338;DHT22;60294;64.134;-21.862;2022-11-06T14:46:18;6.60;56.40
72338;DHT22;60294;64.134;-21.862;2022-11-06T14:48:49;6.50;56.10
72338;DHT22;60294;64.134;-21.862;2022-11-06T14:51:16;6.50;56.10
72338;DHT22;60294;64.134;-21.862;2022-11-06T14:54:02;6.50;56.60
72338;DHT22;60294;64.134;-21.862;2022-11-06T14:56:31;6.50;56.40
72338;DHT22;60294;64.134;-21.862;2022-11-06T14:59:00;6.50;56.40
72338;DHT22;60294;64.134;-21.862;2022-11-06T15:01:34;6.50;56.40
72338;DHT22;60294;64.134;-21.862;2022-11-06T15:06:46;6.40;56.60
72338;DHT22;60294;64.134;-21.862;2022-11-06T15:11:59;6.40;57.30
72338;DHT22;60294;64.134;-21.862;2022-11-06T15:17:02;6.30;57.00
72338;DHT22;60294;64.134;-21.862;2022-11-06T15:19:45;6.30;57.10
72338;DHT22;60294;64.134;-21.862;2022-11-06T15:25:21;6.30;57.90
72338;DHT22;60294;64.134;-21.862;2022-11-06T15:28:06;6.30;58.00
72338;DHT22;60294;64.134;-21.862;2022-11-06T15:30:46;6.30;57.50
72338;DHT22;60294;64.134;-21.862;2022-11-06T15:36:19;6.40;57.70
72338;DHT22;60294;64.134;-21.862;2022-11-06T15:38:46;6.40;57.60
72338;DHT22;60294;64.134;-21.862;2022-11-06T15:41:22;6.30;57.70
72338;DHT22;60294;64.134;-21.862;2022-11-06T15:43:51;6.30;57.90
72338;DHT22;60294;64.134;-21.862;2022-11-06T15:46:26;6.30;58.20
72338;DHT22;60294;64.134;-21.862;2022-11-06T15:51:32;6.30;58.80
72338;DHT22;60294;64.134;-21.862;2022-11-06T15:54:01;6.20;59.00
72338;DHT22;60294;64.134;-21.862;2022-11-06T15:56:31;6.20;59.20
72338;DHT22;60294;64.134;-21.862;2022-11-06T15:59:09;6.20;59.40
72338;DHT22;60294;64.134;-21.862;2022-11-06T16:01:36;6.20;59.60
72338;DHT22;60294;64.134;-21.862;2022-11-06T16:04:06;6.10;59.60
72338;DHT22;60294;64.134;-21.862;2022-11-06T16:06:32;6.10;60.10
72338;DHT22;60294;64.134;-21.862;2022-11-06T16:08:59;6.10;60.00
72338;DHT22;60294;64.134;-21.862;2022-11-06T16:11:26;6.10;60.30
72338;DHT22;60294;64.134;-21.862;2022-11-06T16:13:53;6.10;60.90
72338;DHT22;60294;64.134;-21.862;2022-11-06T16:18:55;6.00;61.90
72338;DHT22;60294;64.134;-21.862;2022-11-06T16:21:23;6.10;62.50
72338;DHT22;60294;64.134;-21.862;2022-11-06T16:23:56;6.00;62.30
72338;DHT22;60294;64.134;-21.862;2022-11-06T16:28:59;6.00;62.80
72338;DHT22;60294;64.134;-21.862;2022-11-06T16:31:30;6.10;62.60
72338;DHT22;60294;64.134;-21.862;2022-11-06T16:34:05;6.10;62.60
72338;DHT22;60294;64.134;-21.862;2022-11-06T16:36:59;6.10;63.00
72338;DHT22;60294;64.134;-21.862;2022-11-06T16:39:39;6.10;62.70
72338;DHT22;60294;64.134;-21.862;2022-11-06T16:49:53;6.10;62.30
72338;DHT22;60294;64.134;-21.862;2022-11-06T16:52:36;6.10;62.20
72338;DHT22;60294;64.134;-21.862;2022-11-06T16:55:33;6.00;62.10
72338;DHT22;60294;64.134;-21.862;2022-11-06T16:58:02;6.10;62.30
72338;DHT22;60294;64.134;-21.862;2022-11-06T17:00:30;6.10;62.50
72338;DHT22;60294;64.134;-21.862;2022-11-06T17:02:59;6.10;62.60
72338;DHT22;60294;64.134;-21.862;2022-11-06T17:05:27;6.10;62.40
72338;DHT22;60294;64.134;-21.862;2022-11-06T17:10:48;6.10;61.50
72338;DHT22;60294;64.134;-21.862;2022-11-06T17:15:41;6.10;60.20
72338;DHT22;60294;64.134;-21.862;2022-11-06T17:18:14;6.10;59.60
72338;DHT22;60294;64.134;-21.862;2022-11-06T17:20:45;6.10;59.20
72338;DHT22;60294;64.134;-21.862;2022-11-06T17:23:11;6.10;58.80
72338;DHT22;60294;64.134;-21.862;2022-11-06T17:25:37;6.10;58.60
72338;DHT22;60294;64.134;-21.862;2022-11-06T17:28:03;6.20;57.80
72338;DHT22;60294;64.134;-21.862;2022-11-06T17:30:29;6.20;57.20
72338;DHT22;60294;64.134;-21.862;2022-11-06T17:32:56;6.30;56.80
72338;DHT22;60294;64.134;-21.862;2022-11-06T17:35:22;6.30;56.70
72338;DHT22;60294;64.134;-21.862;2022-11-06T17:37:47;6.30;56.90
72338;DHT22;60294;64.134;-21.862;2022-11-06T17:40:13;6.30;57.10
72338;DHT22;60294;64.134;-21.862;2022-11-06T17:42:39;6.30;57.50
72338;DHT22;60294;64.134;-21.862;2022-11-06T17:45:05;6.30;57.60
72338;DHT22;60294;64.134;-21.862;2022-11-06T17:47:31;6.40;59.30
72338;DHT22;60294;64.134;-21.862;2022-11-06T17:49:57;6.40;58.50
72338;DHT22;60294;64.134;-21.862;2022-11-06T17:52:23;6.40;57.40
72338;DHT22;60294;64.134;-21.862;2022-11-06T17:54:49;6.40;58.10
72338;DHT22;60294;64.134;-21.862;2022-11-06T17:57:15;6.40;57.60
72338;DHT22;60294;64.134;-21.862;2022-11-06T17:59:41;6.40;56.90
72338;DHT22;60294;64.134;-21.862;2022-11-06T18:02:13;6.40;57.00
72338;DHT22;60294;64.134;-21.862;2022-11-06T18:04:39;6.30;56.80